createdAt,value
2018-12-13T00:01:06.309Z,2.68
2018-12-13T00:03:40.110Z,2.57
2018-12-13T00:06:14.019Z,2.68
2018-12-13T00:08:47.932Z,2.63
2018-12-13T00:11:21.991Z,2.71
2018-12-13T00:13:55.952Z,2.74
2018-12-13T00:16:30.021Z,2.94
2018-12-13T00:19:04.168Z,2.57
2018-12-13T00:21:39.101Z,2.34
2018-12-13T00:24:13.212Z,2.50
2018-12-13T00:26:47.125Z,2.24
2018-12-13T00:29:21.029Z,2.29
2018-12-13T00:31:55.037Z,2.21
2018-12-13T00:34:28.844Z,2.31
2018-12-13T00:37:02.817Z,2.15
2018-12-13T00:39:36.861Z,2.01
2018-12-13T00:42:10.740Z,1.88
2018-12-13T00:44:44.674Z,1.95
2018-12-13T00:47:18.482Z,1.90
2018-12-13T00:49:52.387Z,1.68
2018-12-13T00:52:26.253Z,1.74
2018-12-13T00:55:00.312Z,1.89
2018-12-13T00:57:34.315Z,1.79
2018-12-13T01:00:08.938Z,1.67
2018-12-13T01:02:42.710Z,1.62
2018-12-13T01:05:16.862Z,1.68
2018-12-13T01:07:50.761Z,1.86
2018-12-13T01:10:24.779Z,1.74
2018-12-13T01:12:58.889Z,1.88
2018-12-13T01:15:35.147Z,1.85
2018-12-13T01:18:08.966Z,1.83
2018-12-13T01:20:42.961Z,1.79
2018-12-13T01:23:16.713Z,1.75
2018-12-13T01:25:50.775Z,1.69
2018-12-13T01:28:24.499Z,1.47
2018-12-13T01:30:58.593Z,1.58
2018-12-13T01:33:32.340Z,1.82
2018-12-13T01:36:06.303Z,1.97
2018-12-13T01:38:40.112Z,1.81
2018-12-13T01:41:14.321Z,2.05
2018-12-13T01:43:48.126Z,2.14
2018-12-13T01:46:22.033Z,1.77
2018-12-13T01:48:56.043Z,1.69
2018-12-13T01:51:29.949Z,1.62
2018-12-13T01:54:03.764Z,1.38
2018-12-13T01:56:37.633Z,1.65
2018-12-13T01:59:11.671Z,1.51
2018-12-13T02:01:45.700Z,1.38
2018-12-13T02:04:19.691Z,1.58
2018-12-13T02:06:58.648Z,1.35
2018-12-13T02:09:29.918Z,1.28
2018-12-13T02:12:03.960Z,1.10
2018-12-13T02:14:38.186Z,1.17
2018-12-13T02:17:12.094Z,0.98
2018-12-13T02:19:46.104Z,1.17
2018-12-13T02:22:20.068Z,1.08
2018-12-13T02:24:54.237Z,1.20
2018-12-13T02:27:28.098Z,1.64
2018-12-13T02:30:02.250Z,2.01
2018-12-13T02:32:35.946Z,2.13
2018-12-13T02:35:09.956Z,2.30
2018-12-13T02:37:43.863Z,2.26
2018-12-13T02:40:17.977Z,2.31
2018-12-13T02:42:52.089Z,2.23
2018-12-13T02:45:26.098Z,2.19
2018-12-13T02:47:59.903Z,2.14
2018-12-13T02:50:33.812Z,2.23
2018-12-13T02:53:07.572Z,2.34
2018-12-13T02:55:42.685Z,2.00
2018-12-13T02:58:16.657Z,1.70
2018-12-13T03:00:50.564Z,1.72
2018-12-13T03:03:24.369Z,1.91
2018-12-13T03:05:58.381Z,1.81
2018-12-13T03:08:32.188Z,1.61
2018-12-13T03:11:06.373Z,1.33
2018-12-13T03:13:40.406Z,1.35
2018-12-13T03:16:14.314Z,1.41
2018-12-13T03:18:48.119Z,1.41
2018-12-13T03:21:22.027Z,1.46
2018-12-13T03:23:55.801Z,1.31
2018-12-13T03:26:29.945Z,1.23
2018-12-13T03:29:03.951Z,1.31
2018-12-13T03:31:38.066Z,1.29
2018-12-13T03:34:11.984Z,1.27
2018-12-13T03:36:45.847Z,1.51
2018-12-13T03:39:19.890Z,1.39
2018-12-13T03:41:53.898Z,1.43
2018-12-13T03:44:28.011Z,1.68
2018-12-13T03:47:02.020Z,1.91
2018-12-13T03:49:35.827Z,1.70
2018-12-13T03:52:09.835Z,1.93
2018-12-13T03:54:43.863Z,1.83
2018-12-13T03:57:17.753Z,1.71
2018-12-13T03:59:51.557Z,1.87
2018-12-13T04:02:25.368Z,1.60
2018-12-13T04:04:59.257Z,1.69
2018-12-13T04:07:33.380Z,1.62
2018-12-13T04:10:07.292Z,1.74
2018-12-13T04:12:41.176Z,1.46
2018-12-13T04:15:15.203Z,1.36
2018-12-13T04:17:49.216Z,1.32
2018-12-13T04:20:23.022Z,1.33
2018-12-13T04:22:56.925Z,1.31
2018-12-13T04:25:30.834Z,1.24
2018-12-13T04:28:04.452Z,1.03
2018-12-13T04:30:38.446Z,1.35
2018-12-13T04:33:12.350Z,1.40
2018-12-13T04:35:46.133Z,1.14
2018-12-13T04:38:19.922Z,1.04
2018-12-13T04:40:53.968Z,0.96
2018-12-13T04:43:27.776Z,0.88
2018-12-13T04:46:01.789Z,0.80
2018-12-13T04:48:35.690Z,1.35
2018-12-13T04:51:09.597Z,1.24
2018-12-13T04:53:43.505Z,1.24
2018-12-13T04:56:17.516Z,1.13
2018-12-13T04:58:51.318Z,1.14
2018-12-13T05:01:25.335Z,1.05
2018-12-13T05:03:59.236Z,1.16
2018-12-13T05:06:33.143Z,1.15
2018-12-13T05:09:07.568Z,0.96
2018-12-13T05:11:41.673Z,0.79
2018-12-13T05:14:15.429Z,0.76
2018-12-13T05:16:49.593Z,0.77
2018-12-13T05:19:23.500Z,0.70
2018-12-13T05:21:57.509Z,0.70
2018-12-13T05:24:31.428Z,0.79
2018-12-13T05:27:05.424Z,0.94
2018-12-13T05:29:39.334Z,1.24
2018-12-13T05:32:13.239Z,1.35
2018-12-13T05:34:47.044Z,1.47
2018-12-13T05:37:21.359Z,1.07
2018-12-13T05:39:55.479Z,1.16
2018-12-13T05:42:29.383Z,1.06
2018-12-13T05:45:03.901Z,1.01
2018-12-13T05:47:37.769Z,0.85
2018-12-13T05:50:12.138Z,0.95
2018-12-13T05:52:46.032Z,0.67
2018-12-13T05:55:20.016Z,0.60
2018-12-13T05:57:54.125Z,0.46
2018-12-13T06:00:28.062Z,0.19
2018-12-13T06:03:02.173Z,0.12
2018-12-13T06:05:36.183Z,0.19
2018-12-13T06:08:10.090Z,0.10
2018-12-13T06:10:44.611Z,0.12
2018-12-13T06:13:18.652Z,0.05
2018-12-13T06:15:52.733Z,0.12
2018-12-13T06:18:26.569Z,-0.05
2018-12-13T06:21:00.855Z,-0.05
2018-12-13T06:23:34.823Z,0.07
2018-12-13T06:26:09.079Z,0.01
2018-12-13T06:28:43.054Z,-0.12
2018-12-13T06:31:17.115Z,-0.18
2018-12-13T06:33:51.144Z,-0.15
2018-12-13T06:36:25.136Z,-0.21
2018-12-13T06:38:59.030Z,-0.20
2018-12-13T06:41:33.137Z,-0.16
2018-12-13T06:44:06.985Z,-0.07
2018-12-13T06:46:40.751Z,0.21
2018-12-13T06:49:14.756Z,0.41
2018-12-13T06:51:48.766Z,0.58
2018-12-13T06:54:22.674Z,0.53
2018-12-13T06:56:56.584Z,0.51
2018-12-13T06:59:30.592Z,0.44
2018-12-13T07:02:04.595Z,0.43
2018-12-13T07:04:38.519Z,0.57
2018-12-13T07:07:12.630Z,0.69
2018-12-13T07:09:46.486Z,0.45
2018-12-13T07:12:20.537Z,0.38
2018-12-13T07:14:54.442Z,0.35
2018-12-13T07:17:28.248Z,0.33
2018-12-13T07:20:02.154Z,0.48
2018-12-13T07:22:36.034Z,0.31
2018-12-13T07:25:10.023Z,0.13
2018-12-13T07:27:44.082Z,0.04
2018-12-13T07:30:17.779Z,0.07
2018-12-13T07:32:51.793Z,0.18
2018-12-13T07:35:25.657Z,0.38
2018-12-13T07:37:59.813Z,0.24
2018-12-13T07:40:33.686Z,0.20
2018-12-13T07:43:07.775Z,0.10
2018-12-13T07:45:41.744Z,0.14
2018-12-13T07:48:15.748Z,0.03
2018-12-13T07:50:49.647Z,-0.17
2018-12-13T07:53:23.699Z,0.04
2018-12-13T07:55:57.667Z,-0.23
2018-12-13T07:58:31.381Z,-0.03
2018-12-13T08:01:05.491Z,0.07
2018-12-13T08:03:39.397Z,-0.02
2018-12-13T08:06:13.352Z,0.25
2018-12-13T08:08:47.108Z,0.50
2018-12-13T08:11:20.919Z,0.25
2018-12-13T08:13:55.029Z,0.24
2018-12-13T08:16:29.034Z,-0.03
2018-12-13T08:19:15.024Z,-0.01
2018-12-13T08:21:48.871Z,0.02
2018-12-13T08:24:22.811Z,0.01
2018-12-13T08:26:56.747Z,-0.13
2018-12-13T08:29:30.859Z,0.03
2018-12-13T08:32:04.766Z,0.02
2018-12-13T08:34:38.617Z,0.02
2018-12-13T08:37:12.579Z,0.25
2018-12-13T08:39:46.385Z,0.17
2018-12-13T08:42:20.087Z,-0.07
2018-12-13T08:44:54.097Z,0.03
2018-12-13T08:47:27.734Z,0.16
2018-12-13T08:50:01.706Z,0.36
2018-12-13T08:52:35.716Z,0.33
2018-12-13T08:55:09.520Z,0.10
2018-12-13T08:57:43.427Z,0.12
2018-12-13T09:00:17.335Z,0.12
2018-12-13T09:02:51.302Z,0.20
2018-12-13T09:05:25.252Z,0.45
2018-12-13T09:07:58.905Z,0.50
2018-12-13T09:10:32.822Z,0.43
2018-12-13T09:13:06.974Z,0.52
2018-12-13T09:15:40.881Z,0.87
2018-12-13T09:18:14.891Z,1.19
2018-12-13T09:20:48.785Z,0.85
2018-12-13T09:23:22.895Z,0.67
2018-12-13T09:25:56.945Z,0.46
2018-12-13T09:28:30.929Z,0.56
2018-12-13T09:31:04.853Z,0.66
2018-12-13T09:33:38.948Z,0.70
2018-12-13T09:36:12.856Z,0.54
2018-12-13T09:38:46.764Z,0.73
2018-12-13T09:41:20.662Z,0.58
2018-12-13T09:43:54.581Z,0.67
2018-12-13T09:46:28.355Z,0.55
2018-12-13T09:49:02.596Z,0.44
2018-12-13T09:51:36.350Z,0.50
2018-12-13T09:54:10.119Z,0.46
2018-12-13T09:56:43.910Z,0.66
2018-12-13T09:59:17.919Z,0.50
2018-12-13T10:01:51.828Z,0.64
2018-12-13T10:04:25.629Z,0.37
2018-12-13T10:06:59.742Z,0.20
2018-12-13T10:09:33.709Z,0.39
2018-12-13T10:12:07.554Z,0.41
2018-12-13T10:14:41.566Z,0.36
2018-12-13T10:17:15.681Z,0.46
2018-12-13T10:19:49.688Z,0.60
2018-12-13T10:22:23.438Z,0.47
2018-12-13T10:24:57.291Z,0.39
2018-12-13T10:27:31.106Z,0.56
2018-12-13T10:30:05.419Z,0.42
2018-12-13T10:32:39.324Z,0.48
2018-12-13T10:35:13.307Z,0.61
2018-12-13T10:37:47.194Z,0.54
2018-12-13T10:40:21.333Z,0.40
2018-12-13T10:42:55.161Z,0.70
2018-12-13T10:45:29.271Z,0.70
2018-12-13T10:48:03.099Z,0.49
2018-12-13T10:50:37.167Z,0.49
2018-12-13T10:53:11.197Z,0.66
2018-12-13T10:55:45.516Z,0.51
2018-12-13T10:58:19.317Z,0.69
2018-12-13T11:00:58.754Z,0.54
2018-12-13T11:03:36.416Z,0.68
2018-12-13T11:06:10.459Z,0.48
2018-12-13T11:08:44.742Z,0.57
2018-12-13T11:11:18.786Z,0.56
2018-12-13T11:13:52.900Z,0.50
2018-12-13T11:16:27.218Z,0.35
2018-12-13T11:19:01.122Z,0.63
2018-12-13T11:21:34.927Z,0.66
2018-12-13T11:24:08.959Z,0.91
2018-12-13T11:26:42.945Z,0.83
2018-12-13T11:32:41.552Z,0.68
2018-12-13T11:35:15.546Z,0.73
2018-12-13T11:37:49.571Z,1.00
2018-12-13T11:40:23.450Z,1.00
2018-12-13T11:42:57.591Z,0.75
2018-12-13T11:45:31.601Z,0.99
2018-12-13T11:48:05.572Z,0.75
2018-12-13T11:50:39.710Z,0.90
2018-12-13T11:53:13.834Z,0.98
2018-12-13T11:55:47.841Z,1.23
2018-12-13T11:58:21.761Z,1.02
2018-12-13T12:00:55.759Z,1.33
2018-12-13T12:03:29.986Z,0.96
2018-12-13T12:06:03.880Z,0.61
2018-12-13T12:08:37.787Z,0.64
2018-12-13T12:11:11.676Z,0.62
2018-12-13T12:13:45.810Z,0.87
2018-12-13T12:16:19.714Z,0.77
2018-12-13T12:18:53.625Z,0.75
2018-12-13T12:21:27.578Z,0.65
2018-12-13T12:24:01.743Z,0.84
2018-12-13T12:26:35.739Z,0.54
2018-12-13T12:29:09.660Z,0.68
2018-12-13T12:31:44.180Z,0.69
2018-12-13T12:34:17.986Z,0.56
2018-12-13T12:36:51.666Z,0.66
2018-12-13T12:39:25.596Z,0.93
2018-12-13T12:41:59.307Z,0.81
2018-12-13T12:44:35.457Z,1.03
2018-12-13T12:47:09.469Z,1.07
2018-12-13T12:49:43.788Z,1.02
2018-12-13T12:52:17.592Z,1.23
2018-12-13T12:54:51.704Z,1.22
2018-12-13T12:57:25.671Z,1.12
2018-12-13T12:59:59.719Z,0.99
2018-12-13T13:02:33.694Z,0.92
2018-12-13T13:05:07.946Z,1.12
2018-12-13T13:07:41.798Z,1.13
2018-12-13T13:10:15.861Z,1.20
2018-12-13T13:12:49.852Z,1.35
2018-12-13T13:15:23.982Z,1.21
2018-12-13T13:17:57.891Z,1.05
2018-12-13T13:20:31.694Z,0.85
2018-12-13T13:23:05.404Z,1.04
2018-12-13T13:25:39.250Z,1.03
2018-12-13T13:28:13.211Z,1.26
2018-12-13T13:30:47.120Z,1.12
2018-12-13T13:33:20.808Z,0.80
2018-12-13T13:35:54.830Z,0.87
2018-12-13T13:38:28.696Z,1.08
2018-12-13T13:41:02.660Z,1.41
2018-12-13T13:43:36.631Z,1.45
2018-12-13T13:46:10.665Z,1.20
2018-12-13T13:48:44.771Z,1.37
2018-12-13T13:51:18.887Z,1.66
2018-12-13T13:53:52.693Z,1.16
2018-12-13T13:56:26.601Z,1.33
2018-12-13T13:59:00.507Z,1.43
2018-12-13T14:01:34.415Z,1.42
2018-12-13T14:04:08.531Z,1.46
2018-12-13T14:06:42.300Z,1.37
2018-12-13T14:09:16.142Z,1.40
2018-12-13T14:11:49.872Z,1.39
2018-12-13T14:14:23.950Z,1.59
2018-12-13T14:16:57.961Z,2.23
2018-12-13T14:19:31.867Z,2.36
2018-12-13T14:22:05.985Z,2.06
2018-12-13T14:24:39.888Z,1.66
2018-12-13T14:27:14.007Z,1.17
2018-12-13T14:29:48.008Z,1.26
2018-12-13T14:32:22.735Z,1.30
2018-12-13T14:34:57.528Z,0.97
2018-12-13T14:37:31.675Z,1.07
2018-12-13T14:40:05.689Z,1.26
2018-12-13T14:42:39.701Z,1.35
2018-12-13T14:45:13.717Z,1.05
2018-12-13T14:47:47.716Z,1.33
2018-12-13T14:50:22.440Z,1.33
2018-12-13T14:52:56.348Z,1.69
2018-12-13T14:55:30.110Z,1.92
2018-12-13T14:58:04.163Z,1.95
2018-12-13T15:00:38.274Z,1.81
2018-12-13T15:03:12.329Z,1.51
2018-12-13T15:05:47.112Z,1.54
2018-12-13T15:08:21.019Z,1.75
2018-12-13T15:10:54.969Z,1.70
2018-12-13T15:13:29.037Z,1.96
2018-12-13T15:16:03.098Z,2.36
2018-12-13T15:18:37.060Z,2.88
2018-12-13T15:21:10.862Z,2.54
2018-12-13T15:23:44.769Z,2.34
2018-12-13T15:26:18.574Z,2.28
2018-12-13T15:28:52.364Z,1.80
2018-12-13T15:31:26.492Z,2.15
2018-12-13T15:34:00.369Z,1.65
2018-12-13T15:36:34.460Z,2.04
2018-12-13T15:39:08.459Z,2.09
2018-12-13T15:41:42.529Z,2.24
2018-12-13T15:44:16.341Z,2.22
2018-12-13T15:46:50.245Z,2.29
2018-12-13T15:49:24.661Z,1.82
2018-12-13T15:51:58.373Z,1.67
2018-12-13T15:54:32.332Z,1.60
2018-12-13T15:57:06.394Z,1.66
2018-12-13T15:59:40.188Z,1.68
2018-12-13T16:02:14.096Z,1.74
2018-12-13T16:04:47.903Z,2.09
2018-12-13T16:07:22.010Z,1.99
2018-12-13T16:09:55.924Z,2.00
2018-12-13T16:12:29.833Z,1.87
2018-12-13T16:15:04.169Z,2.01
2018-12-13T16:17:38.017Z,2.18
2018-12-13T16:20:11.751Z,2.02
2018-12-13T16:22:45.761Z,2.02
2018-12-13T16:25:19.667Z,1.91
2018-12-13T16:27:53.731Z,2.14
2018-12-13T16:30:27.790Z,2.10
2018-12-13T16:33:01.600Z,1.79
2018-12-13T16:35:35.683Z,1.80
2018-12-13T16:38:09.722Z,1.75
2018-12-13T16:40:43.754Z,1.63
2018-12-13T16:43:17.650Z,1.44
2018-12-13T16:45:51.648Z,1.40
2018-12-13T16:48:25.755Z,1.28
2018-12-13T16:50:59.685Z,1.34
2018-12-13T16:53:33.726Z,1.33
2018-12-13T16:56:07.745Z,1.34
2018-12-13T16:58:41.799Z,1.50
2018-12-13T17:01:15.802Z,1.36
2018-12-13T17:03:49.607Z,1.74
2018-12-13T17:06:23.563Z,1.68
2018-12-13T17:08:57.626Z,1.81
2018-12-13T17:11:31.447Z,1.79
2018-12-13T17:14:05.443Z,1.92
2018-12-13T17:16:40.065Z,2.06
2018-12-13T17:19:14.177Z,2.17
2018-12-13T17:21:48.084Z,2.07
2018-12-13T17:24:21.994Z,2.21
2018-12-13T17:26:57.129Z,2.19
2018-12-13T17:29:30.994Z,2.34
2018-12-13T17:32:05.252Z,2.39
2018-12-13T17:34:40.352Z,2.36
2018-12-13T17:37:14.497Z,2.18
2018-12-13T17:39:48.403Z,1.92
2018-12-13T17:42:22.380Z,2.02
2018-12-13T17:44:56.423Z,1.99
2018-12-13T17:47:30.333Z,1.85
2018-12-13T17:50:04.828Z,1.79
2018-12-13T17:52:38.659Z,1.78
2018-12-13T17:55:12.564Z,1.66
2018-12-13T17:57:46.573Z,1.64
2018-12-13T18:00:20.789Z,1.79
2018-12-13T18:02:54.903Z,1.69
2018-12-13T18:05:28.809Z,1.58
2018-12-13T18:08:02.611Z,0.96
2018-12-13T18:10:36.726Z,1.42
2018-12-13T18:13:10.511Z,1.47
2018-12-13T18:15:44.503Z,1.23
2018-12-13T18:18:18.547Z,1.12
2018-12-13T18:20:52.352Z,1.13
2018-12-13T18:23:26.260Z,0.80
2018-12-13T18:25:59.961Z,0.72
2018-12-13T18:28:33.869Z,0.93
2018-12-13T18:31:07.857Z,1.00
2018-12-13T18:33:41.891Z,1.03
2018-12-13T18:36:15.897Z,1.10
2018-12-13T18:38:49.713Z,0.93
2018-12-13T18:41:23.614Z,1.11
2018-12-13T18:43:57.415Z,1.06
2018-12-13T18:46:31.424Z,1.35
2018-12-13T18:49:05.303Z,1.30
2018-12-13T18:51:39.442Z,1.47
2018-12-13T18:54:13.350Z,1.35
2018-12-13T18:56:47.840Z,1.00
2018-12-13T18:59:21.985Z,1.49
2018-12-13T19:01:56.088Z,1.41
2018-12-13T19:04:30.314Z,1.27
2018-12-13T19:07:04.319Z,1.21
2018-12-13T19:09:38.227Z,0.90
2018-12-13T19:12:12.032Z,0.73
2018-12-13T19:14:46.022Z,0.62
2018-12-13T19:17:20.064Z,0.68
2018-12-13T19:19:53.957Z,0.62
2018-12-13T19:22:27.864Z,0.67
2018-12-13T19:25:01.876Z,0.79
2018-12-13T19:27:35.758Z,0.63
2018-12-13T19:30:09.829Z,0.46
2018-12-13T19:32:43.929Z,0.59
2018-12-13T19:35:19.487Z,0.41
2018-12-13T19:37:53.477Z,0.63
2018-12-13T19:40:27.301Z,0.61
2018-12-13T19:43:01.067Z,0.81
2018-12-13T19:45:34.792Z,0.91
2018-12-13T19:48:08.586Z,0.81
2018-12-13T19:50:43.100Z,0.61
2018-12-13T19:53:17.620Z,0.66
2018-12-13T19:55:51.568Z,0.72
2018-12-13T19:58:25.177Z,0.85
2018-12-13T20:00:59.033Z,0.73
2018-12-13T20:03:32.838Z,1.11
2018-12-13T20:06:06.745Z,1.50
2018-12-13T20:08:40.557Z,1.59
2018-12-13T20:11:14.559Z,1.73
2018-12-13T20:13:48.468Z,1.39
2018-12-13T20:16:22.583Z,1.25
2018-12-13T20:18:56.648Z,1.35
2018-12-13T20:21:30.598Z,1.27
2018-12-13T20:24:04.620Z,1.24
2018-12-13T20:26:38.615Z,1.61
2018-12-13T20:29:12.523Z,1.78
2018-12-13T20:31:46.548Z,2.00
2018-12-13T20:34:20.572Z,2.02
2018-12-13T20:36:54.449Z,1.81
2018-12-13T20:39:28.257Z,1.86
2018-12-13T20:42:01.969Z,1.49
2018-12-13T20:44:36.091Z,1.49
2018-12-13T20:47:10.000Z,1.37
2018-12-13T20:49:44.105Z,1.32
2018-12-13T20:52:18.201Z,1.42
2018-12-13T20:54:52.109Z,1.35
2018-12-13T20:57:26.059Z,1.32
2018-12-13T21:00:00.001Z,1.53
2018-12-13T21:02:34.096Z,1.22
2018-12-13T21:05:08.252Z,1.26
2018-12-13T21:07:42.327Z,1.68
2018-12-13T21:10:16.419Z,1.58
2018-12-13T21:12:50.583Z,1.59
2018-12-13T21:15:24.747Z,1.64
2018-12-13T21:17:59.029Z,1.78
2018-12-13T21:20:32.987Z,2.14
2018-12-13T21:23:07.079Z,1.96
2018-12-13T21:25:41.261Z,1.89
2018-12-13T21:28:15.090Z,2.14
2018-12-13T21:30:49.162Z,1.98
2018-12-13T21:33:23.069Z,1.81
2018-12-13T21:35:56.814Z,1.91
2018-12-13T21:38:30.653Z,1.96
2018-12-13T21:41:04.429Z,1.92
2018-12-13T21:43:38.408Z,1.73
2018-12-13T21:46:12.483Z,1.64
2018-12-13T21:48:46.528Z,1.92
2018-12-13T21:51:20.639Z,1.90
2018-12-13T21:53:54.738Z,2.19
2018-12-13T21:56:29.164Z,2.63
2018-12-13T21:59:03.881Z,2.29
2018-12-13T22:01:37.930Z,1.97
2018-12-13T22:04:11.800Z,2.01
2018-12-13T22:06:45.495Z,2.14
2018-12-13T22:09:19.320Z,2.19
2018-12-13T22:11:53.103Z,2.25
2018-12-13T22:14:26.917Z,2.61
2018-12-13T22:17:00.720Z,2.61
2018-12-13T22:19:34.444Z,2.92
2018-12-13T22:22:08.550Z,2.46
2018-12-13T22:24:42.647Z,2.28
2018-12-13T22:27:19.611Z,2.52
2018-12-13T22:29:53.635Z,2.83
2018-12-13T22:32:27.543Z,2.54
2018-12-13T22:35:01.347Z,2.08
2018-12-13T22:37:35.255Z,1.92
2018-12-13T22:40:08.986Z,2.10
2018-12-13T22:42:42.733Z,2.30
2018-12-13T22:45:16.459Z,2.27
2018-12-13T22:47:50.342Z,2.17
2018-12-13T22:50:24.179Z,2.23
2018-12-13T22:52:58.237Z,2.40
2018-12-13T22:55:32.399Z,2.23
2018-12-13T22:58:06.613Z,2.13
2018-12-13T23:00:41.190Z,1.99
2018-12-13T23:03:15.095Z,1.83
2018-12-13T23:05:49.258Z,1.78
2018-12-13T23:08:23.287Z,1.50
2018-12-13T23:10:57.380Z,1.39
2018-12-13T23:13:31.595Z,1.13
2018-12-13T23:16:05.705Z,1.17
2018-12-13T23:18:39.320Z,1.35
2018-12-13T23:21:13.185Z,1.42
2018-12-13T23:23:46.920Z,1.49
2018-12-13T23:26:21.027Z,1.24
2018-12-13T23:28:54.832Z,1.45
2018-12-13T23:31:28.996Z,1.66
2018-12-13T23:34:03.158Z,1.62
2018-12-13T23:36:36.873Z,1.52
2018-12-13T23:39:10.642Z,1.36
2018-12-13T23:41:44.469Z,1.38
2018-12-13T23:44:18.274Z,1.40
2018-12-13T23:46:51.913Z,1.06
2018-12-13T23:49:25.717Z,1.29
2018-12-13T23:51:59.794Z,1.40
2018-12-13T23:54:33.572Z,1.63
2018-12-13T23:57:07.708Z,1.87
2018-12-13T23:59:41.456Z,1.67
